createdAt,value
2017-11-22T00:01:43.034Z,20.43
2017-11-22T00:04:11.893Z,24.47
2017-11-22T00:06:41.287Z,21.63
2017-11-22T00:09:10.183Z,21.37
2017-11-22T00:11:39.279Z,23.27
2017-11-22T00:14:08.143Z,21.80
2017-11-22T00:16:37.065Z,22.60
2017-11-22T00:19:06.778Z,21.20
2017-11-22T00:21:35.667Z,21.03
2017-11-22T00:24:04.756Z,20.73
2017-11-22T00:26:33.747Z,33.30
2017-11-22T00:29:02.897Z,21.67
2017-11-22T00:31:31.634Z,22.10
2017-11-22T00:34:00.527Z,20.87
2017-11-22T00:36:29.419Z,21.47
2017-11-22T00:38:58.891Z,19.97
2017-11-22T00:41:28.636Z,20.13
2017-11-22T00:43:57.638Z,21.87
2017-11-22T00:46:27.099Z,21.73
2017-11-22T00:48:55.919Z,21.73
2017-11-22T00:51:25.023Z,21.80
2017-11-22T00:53:54.081Z,21.80
2017-11-22T00:56:23.651Z,21.77
2017-11-22T00:58:52.923Z,22.37
2017-11-22T01:01:21.915Z,21.77
2017-11-22T01:03:50.903Z,22.53
2017-11-22T01:06:21.057Z,23.60
2017-11-22T01:08:50.737Z,22.53
2017-11-22T01:11:19.840Z,21.77
2017-11-22T01:13:48.803Z,21.57
2017-11-22T01:16:17.960Z,20.10
2017-11-22T01:18:46.914Z,21.00
2017-11-22T01:21:15.790Z,21.80
2017-11-22T01:23:44.695Z,22.40
2017-11-22T01:26:13.380Z,21.80
2017-11-22T01:28:42.630Z,22.83
2017-11-22T01:31:11.681Z,20.07
2017-11-22T01:33:40.589Z,22.07
2017-11-22T01:36:09.705Z,21.03
2017-11-22T01:38:38.857Z,20.37
2017-11-22T01:41:08.161Z,20.00
2017-11-22T01:43:38.834Z,18.53
2017-11-22T01:46:08.982Z,19.00
2017-11-22T01:48:39.060Z,17.87
2017-11-22T01:51:07.821Z,18.10
2017-11-22T01:53:36.655Z,18.80
2017-11-22T01:56:05.713Z,18.40
2017-11-22T01:58:34.395Z,19.17
2017-11-22T02:01:03.285Z,18.17
2017-11-22T02:03:32.171Z,18.67
2017-11-22T02:06:00.863Z,19.30
2017-11-22T02:08:29.648Z,18.70
2017-11-22T02:10:58.540Z,20.23
2017-11-22T02:13:27.230Z,18.97
2017-11-22T02:15:56.017Z,19.37
2017-11-22T02:18:25.109Z,19.17
2017-11-22T02:20:53.998Z,20.27
2017-11-22T02:23:22.685Z,19.20
2017-11-22T02:25:51.576Z,19.70
2017-11-22T02:28:20.363Z,20.20
2017-11-22T02:30:49.257Z,18.67
2017-11-22T02:33:18.966Z,18.97
2017-11-22T02:35:47.688Z,19.70
2017-11-22T02:38:16.439Z,18.70
2017-11-22T02:40:45.342Z,18.47
2017-11-22T02:43:15.050Z,18.40
2017-11-22T02:45:43.726Z,19.60
2017-11-22T02:48:13.420Z,19.00
2017-11-22T02:50:42.126Z,19.70
2017-11-22T02:53:11.016Z,17.87
2017-11-22T02:55:40.008Z,17.00
2017-11-22T02:58:08.904Z,19.60
2017-11-22T03:00:37.749Z,18.90
2017-11-22T03:03:06.636Z,17.20
2017-11-22T03:05:35.372Z,18.83
2017-11-22T03:08:04.886Z,19.37
2017-11-22T03:10:33.766Z,20.37
2017-11-22T03:13:03.476Z,18.73
2017-11-22T03:15:32.366Z,19.47
2017-11-22T03:18:01.259Z,21.27
2017-11-22T03:20:29.943Z,19.10
2017-11-22T03:22:58.628Z,19.53
2017-11-22T03:25:27.524Z,19.70
2017-11-22T03:27:56.313Z,19.80
2017-11-22T03:30:25.203Z,18.80
2017-11-22T03:32:54.092Z,18.53
2017-11-22T03:35:22.776Z,17.50
2017-11-22T03:37:51.563Z,18.00
2017-11-22T03:40:20.457Z,18.70
2017-11-22T03:42:49.962Z,17.43
2017-11-22T03:45:18.648Z,16.50
2017-11-22T03:47:48.152Z,16.93
2017-11-22T03:50:17.046Z,15.73
2017-11-22T03:52:51.466Z,16.13
2017-11-22T03:55:20.358Z,16.50
2017-11-22T03:57:49.248Z,16.73
2017-11-22T04:00:18.329Z,18.03
2017-11-22T04:02:58.635Z,16.10
2017-11-22T04:05:27.388Z,15.40
2017-11-22T04:07:56.176Z,16.23
2017-11-22T04:10:24.862Z,17.07
2017-11-22T04:12:53.654Z,17.63
2017-11-22T04:15:22.338Z,15.70
2017-11-22T04:17:55.120Z,15.90
2017-11-22T04:20:30.361Z,16.93
2017-11-22T04:22:59.255Z,17.07
2017-11-22T04:25:27.936Z,17.73
2017-11-22T04:27:56.631Z,16.83
2017-11-22T04:30:25.721Z,17.87
2017-11-22T04:32:55.226Z,17.60
2017-11-22T04:35:24.013Z,16.37
2017-11-22T04:37:52.699Z,16.47
2017-11-22T04:40:21.392Z,16.70
2017-11-22T04:42:50.277Z,16.83
2017-11-22T04:45:19.167Z,17.30
2017-11-22T04:47:48.059Z,16.40
2017-11-22T04:50:16.744Z,16.30
2017-11-22T04:52:45.635Z,17.63
2017-11-22T04:55:14.534Z,17.77
2017-11-22T04:57:43.419Z,18.10
2017-11-22T05:00:12.309Z,18.27
2017-11-22T05:02:41.813Z,18.13
2017-11-22T05:05:10.705Z,19.37
2017-11-22T05:07:39.596Z,21.10
2017-11-22T05:10:08.469Z,19.97
2017-11-22T05:12:37.363Z,19.07
2017-11-22T05:15:06.268Z,19.50
2017-11-22T05:17:35.160Z,19.10
2017-11-22T05:20:03.847Z,20.20
2017-11-22T05:26:03.888Z,21.00
2017-11-22T05:28:32.575Z,21.03
2017-11-22T05:31:01.260Z,23.50
2017-11-22T05:33:29.890Z,21.23
2017-11-22T05:35:58.635Z,22.17
2017-11-22T05:38:27.305Z,21.40
2017-11-22T05:40:56.221Z,21.67
2017-11-22T05:43:25.102Z,22.40
2017-11-22T05:45:53.899Z,20.90
2017-11-22T05:48:22.835Z,20.97
2017-11-22T05:50:51.549Z,20.47
2017-11-22T05:53:20.260Z,19.40
2017-11-22T05:55:49.974Z,22.43
2017-11-22T05:58:18.858Z,19.13
2017-11-22T06:00:54.312Z,19.67
2017-11-22T06:03:23.403Z,18.30
2017-11-22T06:05:52.089Z,18.30
2017-11-22T06:08:20.773Z,19.40
2017-11-22T06:10:49.868Z,20.33
2017-11-22T06:13:18.657Z,20.30
2017-11-22T06:15:47.444Z,21.90
2017-11-22T06:18:16.182Z,22.30
2017-11-22T06:20:44.918Z,19.30
2017-11-22T06:23:13.605Z,21.67
2017-11-22T06:25:42.394Z,21.37
2017-11-22T06:28:11.189Z,20.00
2017-11-22T06:30:46.736Z,24.53
2017-11-22T06:33:15.420Z,21.80
2017-11-22T06:35:44.101Z,21.13
2017-11-22T06:38:12.729Z,22.70
2017-11-22T06:40:41.479Z,24.03
2017-11-22T06:43:10.162Z,23.07
2017-11-22T06:45:39.053Z,24.17
2017-11-22T06:48:07.842Z,24.83
2017-11-22T06:50:36.770Z,24.80
2017-11-22T06:53:05.470Z,25.30
2017-11-22T06:55:34.205Z,25.37
2017-11-22T06:58:02.893Z,25.47
2017-11-22T07:00:31.790Z,39.60
2017-11-22T07:03:01.493Z,28.40
2017-11-22T07:05:30.413Z,26.73
2017-11-22T07:07:59.904Z,28.57
2017-11-22T07:10:28.578Z,29.20
2017-11-22T07:12:57.574Z,28.77
2017-11-22T07:15:26.378Z,29.37
2017-11-22T07:17:55.147Z,29.00
2017-11-22T07:20:24.114Z,27.70
2017-11-22T07:22:53.971Z,26.67
2017-11-22T07:25:22.822Z,29.20
2017-11-22T07:27:51.734Z,26.90
2017-11-22T07:30:20.424Z,28.90
2017-11-22T07:32:49.317Z,28.30
2017-11-22T07:35:17.961Z,30.70
2017-11-22T07:37:50.780Z,26.10
2017-11-22T07:40:19.467Z,29.60
2017-11-22T07:42:48.974Z,28.10
2017-11-22T07:45:17.864Z,29.23
2017-11-22T07:47:52.135Z,28.23
2017-11-22T07:50:20.867Z,27.87
2017-11-22T07:52:49.758Z,28.00
2017-11-22T07:55:18.444Z,28.07
2017-11-22T07:57:50.213Z,29.90
2017-11-22T08:00:32.817Z,30.00
2017-11-22T08:03:07.237Z,29.07
2017-11-22T08:05:36.032Z,29.40
2017-11-22T08:08:05.121Z,28.27
2017-11-22T08:10:33.853Z,29.10
2017-11-22T08:13:02.594Z,28.90
2017-11-22T08:15:31.286Z,29.87
2017-11-22T08:18:00.178Z,30.90
2017-11-22T08:20:28.973Z,31.20
2017-11-22T08:23:00.719Z,30.77
2017-11-22T08:25:29.916Z,29.33
2017-11-22T08:27:58.809Z,28.10
2017-11-22T08:30:27.708Z,28.20
2017-11-22T08:32:57.416Z,27.90
2017-11-22T08:35:26.303Z,30.30
2017-11-22T08:37:55.207Z,31.47
2017-11-22T08:40:23.981Z,31.30
2017-11-22T08:42:58.407Z,31.80
2017-11-22T08:45:27.100Z,31.57
2017-11-22T08:47:55.979Z,28.17
2017-11-22T08:50:24.873Z,32.00
2017-11-22T08:52:54.379Z,26.70
2017-11-22T08:55:28.799Z,32.37
2017-11-22T08:58:03.217Z,30.63
2017-11-22T09:00:31.900Z,27.80
2017-11-22T09:03:03.659Z,31.37
2017-11-22T09:08:33.599Z,44.57
2017-11-22T09:11:02.693Z,30.37
2017-11-22T09:13:31.486Z,31.10
2017-11-22T09:16:00.382Z,40.92
2017-11-22T09:18:38.898Z,35.07
2017-11-22T09:21:10.649Z,34.80
2017-11-22T09:23:39.536Z,33.00
2017-11-22T09:26:08.173Z,32.23
2017-11-22T09:28:36.912Z,35.37
2017-11-22T09:31:11.330Z,35.00
2017-11-22T09:33:40.037Z,30.43
2017-11-22T09:36:09.013Z,29.57
2017-11-22T09:38:38.004Z,32.50
2017-11-22T09:41:06.862Z,35.20
2017-11-22T09:43:36.401Z,35.60
2017-11-22T09:46:05.460Z,39.40
2017-11-22T09:48:34.186Z,40.03
2017-11-22T09:51:02.871Z,42.47
2017-11-22T09:53:31.763Z,44.60
2017-11-22T09:56:00.594Z,41.63
2017-11-22T09:58:29.337Z,35.60
2017-11-22T10:00:58.228Z,36.63
2017-11-22T10:03:26.915Z,35.50
2017-11-22T10:05:55.608Z,39.30
2017-11-22T10:08:24.490Z,39.03
2017-11-22T10:10:53.191Z,38.60
2017-11-22T10:13:22.091Z,39.63
2017-11-22T10:15:51.781Z,39.63
2017-11-22T10:18:35.416Z,36.97
2017-11-22T10:21:04.313Z,33.33
2017-11-22T10:23:33.203Z,35.13
2017-11-22T10:26:02.945Z,37.73
2017-11-22T10:28:31.802Z,36.63
2017-11-22T10:31:00.693Z,35.70
2017-11-22T10:33:35.117Z,34.43
2017-11-22T10:36:04.828Z,34.50
2017-11-22T10:38:33.717Z,33.93
2017-11-22T10:41:02.602Z,32.33
2017-11-22T10:43:31.699Z,30.60
2017-11-22T10:46:00.595Z,30.60
2017-11-22T10:48:29.483Z,29.87
2017-11-22T10:50:58.375Z,28.73
2017-11-22T10:53:27.261Z,31.00
2017-11-22T10:55:56.162Z,33.07
2017-11-22T10:58:25.605Z,28.77
2017-11-22T11:00:54.998Z,27.17
2017-11-22T11:03:24.568Z,29.97
2017-11-22T11:05:53.255Z,26.37
2017-11-22T11:08:22.149Z,31.27
2017-11-22T11:10:51.600Z,25.80
2017-11-22T11:13:23.327Z,25.57
2017-11-22T11:15:52.960Z,24.67
2017-11-22T11:18:22.416Z,25.27
2017-11-22T11:20:51.214Z,24.80
2017-11-22T11:23:19.995Z,22.33
2017-11-22T11:25:48.895Z,22.30
2017-11-22T11:28:17.726Z,29.53
2017-11-22T11:30:47.197Z,26.13
2017-11-22T11:33:16.033Z,21.87
2017-11-22T11:35:56.433Z,22.20
2017-11-22T11:38:26.144Z,21.87
2017-11-22T11:40:55.039Z,22.00
2017-11-22T11:43:24.947Z,19.63
2017-11-22T11:45:53.844Z,19.40
2017-11-22T11:48:24.693Z,18.53
2017-11-22T11:50:53.471Z,19.40
2017-11-22T11:53:23.584Z,19.30
2017-11-22T11:55:52.473Z,18.63
2017-11-22T11:58:21.372Z,19.63
2017-11-22T12:00:50.154Z,18.47
2017-11-22T12:03:18.946Z,18.90
2017-11-22T12:05:47.634Z,18.07
2017-11-22T12:08:16.427Z,17.97
2017-11-22T12:10:45.310Z,17.90
2017-11-22T12:13:14.104Z,17.83
2017-11-22T12:15:42.956Z,19.83
2017-11-22T12:18:12.498Z,16.40
2017-11-22T12:20:41.181Z,16.27
2017-11-22T12:23:16.010Z,14.60
2017-11-22T12:25:44.705Z,15.37
2017-11-22T12:28:13.586Z,12.43
2017-11-22T12:30:42.382Z,18.50
2017-11-22T12:33:11.063Z,8.80
2017-11-22T12:35:39.652Z,8.77
2017-11-22T12:38:08.539Z,10.43
2017-11-22T12:40:37.230Z,9.13
2017-11-22T12:43:06.011Z,8.87
2017-11-22T12:45:34.856Z,7.57
2017-11-22T12:48:03.592Z,6.27
2017-11-22T12:50:32.283Z,9.17
2017-11-22T12:53:01.165Z,8.43
2017-11-22T12:55:29.957Z,7.10
2017-11-22T12:58:00.689Z,7.97
2017-11-22T13:00:29.783Z,7.67
2017-11-22T13:02:59.498Z,6.80
2017-11-22T13:05:28.282Z,8.43
2017-11-22T13:07:57.175Z,8.67
2017-11-22T13:10:29.958Z,8.20
2017-11-22T13:12:58.660Z,6.10
2017-11-22T13:15:27.542Z,6.17
2017-11-22T13:17:56.425Z,6.50
2017-11-22T13:20:25.272Z,6.37
2017-11-22T13:22:54.926Z,6.93
2017-11-22T13:25:23.545Z,5.90
2017-11-22T13:27:52.212Z,7.50
2017-11-22T13:30:20.929Z,7.63
2017-11-22T13:32:49.671Z,7.70
2017-11-22T13:35:18.561Z,6.37
2017-11-22T13:37:47.612Z,7.63
2017-11-22T13:40:16.397Z,7.30
2017-11-22T13:42:46.797Z,8.30
2017-11-22T13:45:17.162Z,9.30
2017-11-22T13:47:45.847Z,12.40
2017-11-22T13:50:15.086Z,9.90
2017-11-22T13:52:44.178Z,11.10
2017-11-22T13:55:13.480Z,9.80
2017-11-22T13:57:42.696Z,9.27
2017-11-22T14:00:11.859Z,9.07
2017-11-22T14:02:40.936Z,8.63
2017-11-22T14:05:10.166Z,9.13
2017-11-22T14:07:39.149Z,8.47
2017-11-22T14:10:08.139Z,9.27
2017-11-22T14:12:37.249Z,17.90
2017-11-22T14:15:08.090Z,9.97
2017-11-22T14:17:37.592Z,10.27
2017-11-22T14:20:06.783Z,8.07
2017-11-22T14:22:35.890Z,7.97
2017-11-22T14:25:05.832Z,11.50
2017-11-22T14:27:35.039Z,9.77
2017-11-22T14:30:04.913Z,9.70
2017-11-22T14:32:34.958Z,10.53
2017-11-22T14:35:04.649Z,7.60
2017-11-22T14:37:33.841Z,8.13
2017-11-22T14:40:04.279Z,8.13
2017-11-22T14:42:35.110Z,7.60
2017-11-22T14:45:04.723Z,7.37
2017-11-22T14:47:34.602Z,9.80
2017-11-22T14:50:03.758Z,8.47
2017-11-22T14:52:33.101Z,8.63
2017-11-22T14:55:02.015Z,10.80
2017-11-22T14:57:30.913Z,12.60
2017-11-22T15:00:00.103Z,13.30
2017-11-22T15:02:29.507Z,10.50
2017-11-22T15:04:59.130Z,12.03
2017-11-22T15:07:28.212Z,12.30
2017-11-22T15:09:57.308Z,12.63
2017-11-22T15:12:26.487Z,13.17
2017-11-22T15:14:56.526Z,13.90
2017-11-22T15:17:25.690Z,12.77
2017-11-22T15:19:54.689Z,14.70
2017-11-22T15:22:23.709Z,16.93
2017-11-22T15:24:52.748Z,15.77
2017-11-22T15:27:21.699Z,16.40
2017-11-22T15:29:50.591Z,15.57
2017-11-22T15:32:19.581Z,15.23
2017-11-22T15:34:48.676Z,15.73
2017-11-22T15:37:19.187Z,15.23
2017-11-22T15:39:48.369Z,17.57
2017-11-22T15:42:17.533Z,17.57
2017-11-22T15:44:46.492Z,16.80
2017-11-22T15:47:16.623Z,16.50
2017-11-22T15:49:45.401Z,18.63
2017-11-22T15:52:14.496Z,18.80
2017-11-22T15:54:43.189Z,19.70
2017-11-22T15:57:12.075Z,19.23
2017-11-22T15:59:41.175Z,18.50
2017-11-22T16:02:10.261Z,18.47
2017-11-22T16:04:39.421Z,19.90
2017-11-22T16:07:08.252Z,18.27
2017-11-22T16:09:37.350Z,20.70
2017-11-22T16:12:07.271Z,22.43
2017-11-22T16:14:37.333Z,21.40
2017-11-22T16:17:06.267Z,20.70
2017-11-22T16:19:35.229Z,20.17
2017-11-22T16:22:04.684Z,23.50
2017-11-22T16:24:34.349Z,25.80
2017-11-22T16:27:03.194Z,22.90
2017-11-22T16:29:32.898Z,20.50
2017-11-22T16:32:03.143Z,21.53
2017-11-22T16:34:32.197Z,21.57
2017-11-22T16:37:01.092Z,20.43
2017-11-22T16:39:29.987Z,20.33
2017-11-22T16:41:58.859Z,23.60
2017-11-22T16:44:28.129Z,28.27
2017-11-22T16:46:56.924Z,25.70
2017-11-22T16:49:26.365Z,23.47
2017-11-22T16:51:55.671Z,23.97
2017-11-22T16:54:24.770Z,25.30
2017-11-22T16:56:53.856Z,25.47
2017-11-22T16:59:23.387Z,24.60
2017-11-22T17:01:52.257Z,24.47
2017-11-22T17:04:21.410Z,27.97
2017-11-22T17:06:50.421Z,26.60
2017-11-22T17:09:19.746Z,26.40
2017-11-22T17:11:48.637Z,25.33
2017-11-22T17:14:18.683Z,25.93
2017-11-22T17:16:47.652Z,27.90
2017-11-22T17:19:16.742Z,29.10
2017-11-22T17:21:45.845Z,27.30
2017-11-22T17:24:15.149Z,27.13
2017-11-22T17:26:44.612Z,27.00
2017-11-22T17:29:13.534Z,27.83
2017-11-22T17:31:42.437Z,27.53
2017-11-22T17:34:11.259Z,26.83
2017-11-22T17:36:43.893Z,29.07
2017-11-22T17:39:12.912Z,30.33
2017-11-22T17:41:42.293Z,28.23
2017-11-22T17:44:12.003Z,28.87
2017-11-22T17:46:42.030Z,27.93
2017-11-22T17:49:10.808Z,27.63
2017-11-22T17:51:39.698Z,32.13
2017-11-22T17:54:08.794Z,30.10
2017-11-22T17:56:37.879Z,32.20
2017-11-22T17:59:25.634Z,29.37
2017-11-22T18:01:55.801Z,25.77
2017-11-22T18:04:24.636Z,34.40
2017-11-22T18:06:53.841Z,28.20
2017-11-22T18:09:22.777Z,27.97
2017-11-22T18:11:51.835Z,25.27
2017-11-22T18:14:20.956Z,25.60
2017-11-22T18:16:49.905Z,28.80
2017-11-22T18:19:19.077Z,24.60
2017-11-22T18:21:47.812Z,24.27
2017-11-22T18:24:17.091Z,24.10
2017-11-22T18:26:45.983Z,25.57
2017-11-22T18:29:14.771Z,27.33
2017-11-22T18:31:43.925Z,24.33
2017-11-22T18:34:12.963Z,23.53
2017-11-22T18:36:42.070Z,25.90
2017-11-22T18:39:10.952Z,28.30
2017-11-22T18:41:40.049Z,28.73
2017-11-22T18:44:08.939Z,27.20
2017-11-22T18:46:37.932Z,28.03
2017-11-22T18:49:06.825Z,26.57
2017-11-22T18:51:35.722Z,26.50
2017-11-22T18:54:04.605Z,27.30
2017-11-22T18:56:33.578Z,27.37
2017-11-22T18:59:03.009Z,29.93
2017-11-22T19:01:32.427Z,28.03
2017-11-22T19:04:01.106Z,26.43
2017-11-22T19:06:30.025Z,27.17
2017-11-22T19:08:58.968Z,27.60
2017-11-22T19:11:27.823Z,30.97
2017-11-22T19:13:57.124Z,27.23
2017-11-22T19:16:26.590Z,29.20
2017-11-22T19:21:52.786Z,29.27
2017-11-22T19:24:21.462Z,27.00
2017-11-22T19:26:50.325Z,31.20
2017-11-22T19:29:26.990Z,28.37
2017-11-22T19:31:56.902Z,29.57
2017-11-22T19:34:26.604Z,31.27
2017-11-22T19:36:55.592Z,28.83
2017-11-22T19:39:24.470Z,30.70
2017-11-22T19:41:54.439Z,30.07
2017-11-22T19:44:24.000Z,32.83
2017-11-22T19:46:52.953Z,32.50
2017-11-22T19:49:22.067Z,33.53
2017-11-22T19:51:51.145Z,32.27
2017-11-22T19:54:20.077Z,33.83
2017-11-22T19:56:49.288Z,31.87
2017-11-22T19:59:18.160Z,38.17
2017-11-22T20:01:47.159Z,32.23
2017-11-22T20:04:16.258Z,33.17
2017-11-22T20:06:45.561Z,31.90
2017-11-22T20:09:16.072Z,33.53
2017-11-22T20:11:46.201Z,31.00
2017-11-22T20:14:15.063Z,34.20
2017-11-22T20:16:43.959Z,34.03
2017-11-22T20:19:12.669Z,35.30
2017-11-22T20:21:41.463Z,34.17
2017-11-22T20:24:10.350Z,35.70
2017-11-22T20:26:39.350Z,32.30
2017-11-22T20:29:08.135Z,33.10
2017-11-22T20:31:37.022Z,35.80
2017-11-22T20:34:05.912Z,32.70
2017-11-22T20:36:35.625Z,33.73
2017-11-22T20:39:04.454Z,31.90
2017-11-22T20:41:33.206Z,35.93
2017-11-22T20:44:02.238Z,38.57
2017-11-22T20:46:30.994Z,35.40
2017-11-22T20:49:00.142Z,33.53
2017-11-22T20:51:29.788Z,32.73
2017-11-22T20:53:58.637Z,30.93
2017-11-22T20:56:28.085Z,32.30
2017-11-22T20:58:57.041Z,31.83
2017-11-22T21:01:26.073Z,30.73
2017-11-22T21:03:55.218Z,30.20
2017-11-22T21:06:23.951Z,31.20
2017-11-22T21:08:52.907Z,30.80
2017-11-22T21:11:23.072Z,32.57
2017-11-22T21:13:51.960Z,30.07
2017-11-22T21:16:21.181Z,32.77
2017-11-22T21:18:50.357Z,31.17
2017-11-22T21:21:20.001Z,33.00
2017-11-22T21:23:48.927Z,32.13
2017-11-22T21:26:17.901Z,31.20
2017-11-22T21:28:46.737Z,32.43
2017-11-22T21:31:15.731Z,31.40
2017-11-22T21:33:46.050Z,31.73
2017-11-22T21:36:15.763Z,32.67
2017-11-22T21:38:44.612Z,29.80
2017-11-22T21:41:13.342Z,30.47
2017-11-22T21:43:42.199Z,32.30
2017-11-22T21:46:10.966Z,31.60
2017-11-22T21:48:39.821Z,32.30
2017-11-22T21:51:09.517Z,31.10
2017-11-22T21:53:38.409Z,29.70
2017-11-22T21:56:07.304Z,31.10
2017-11-22T21:58:36.395Z,26.63
2017-11-22T22:01:05.516Z,28.03
2017-11-22T22:03:34.489Z,29.77
2017-11-22T22:06:03.902Z,28.10
2017-11-22T22:08:32.693Z,31.33
2017-11-22T22:11:01.778Z,26.17
2017-11-22T22:13:31.352Z,26.33
2017-11-22T22:16:00.385Z,26.60
2017-11-22T22:18:29.924Z,25.40
2017-11-22T22:20:58.976Z,25.83
2017-11-22T22:23:27.881Z,24.30
2017-11-22T22:25:56.763Z,26.50
2017-11-22T22:28:25.652Z,27.13
2017-11-22T22:30:54.339Z,25.70
2017-11-22T22:33:23.431Z,23.43
2017-11-22T22:35:53.077Z,26.50
2017-11-22T22:38:23.671Z,25.30
2017-11-22T22:40:52.776Z,23.00
2017-11-22T22:43:21.452Z,23.40
2017-11-22T22:45:50.143Z,25.87
2017-11-22T22:48:19.031Z,25.50
2017-11-22T22:50:47.718Z,26.27
2017-11-22T22:53:17.018Z,27.63
2017-11-22T22:55:45.861Z,25.77
2017-11-22T22:58:14.801Z,26.30
2017-11-22T23:00:43.502Z,26.10
2017-11-22T23:03:12.580Z,28.47
2017-11-22T23:05:41.212Z,24.83
2017-11-22T23:08:09.876Z,25.80
2017-11-22T23:10:39.058Z,24.70
2017-11-22T23:13:08.049Z,23.20
2017-11-22T23:15:36.667Z,25.13
2017-11-22T23:18:05.418Z,25.77
2017-11-22T23:20:34.307Z,24.67
2017-11-22T23:23:03.203Z,22.70
2017-11-22T23:25:32.642Z,23.33
2017-11-22T23:28:02.308Z,22.37
2017-11-22T23:30:31.216Z,24.90
2017-11-22T23:33:00.071Z,19.73
2017-11-22T23:35:28.780Z,22.17
2017-11-22T23:37:57.874Z,21.50
2017-11-22T23:40:26.722Z,19.30
2017-11-22T23:42:55.450Z,18.37
2017-11-22T23:45:24.342Z,22.20
2017-11-22T23:47:53.249Z,21.20
2017-11-22T23:50:22.143Z,20.50
2017-11-22T23:52:51.792Z,23.00
2017-11-22T23:55:20.736Z,21.33
2017-11-22T23:57:49.585Z,22.50
